sensor_id;sensor_type;location;lat;lon;timestamp;temperature;humidity
20650;DHT22;10484;48.736;9.332;2023-07-13T00:01:44;22.80;1.00
20650;DHT22;10484;48.736;9.332;2023-07-13T00:04:13;22.80;1.00
20650;DHT22;10484;48.736;9.332;2023-07-13T00:06:39;22.70;1.00
20650;DHT22;10484;48.736;9.332;2023-07-13T00:09:04;22.70;1.00
20650;DHT22;10484;48.736;9.332;2023-07-13T00:11:30;22.60;1.00
20650;DHT22;10484;48.736;9.332;2023-07-13T00:13:55;22.60;1.00
20650;DHT22;10484;48.736;9.332;2023-07-13T00:16:21;22.50;1.00
20650;DHT22;10484;48.736;9.332;2023-07-13T00:18:47;22.50;1.00
20650;DHT22;10484;48.736;9.332;2023-07-13T00:21:13;22.50;1.00
20650;DHT22;10484;48.736;9.332;2023-07-13T00:23:40;22.40;1.00
20650;DHT22;10484;48.736;9.332;2023-07-13T00:26:08;22.40;1.00
20650;DHT22;10484;48.736;9.332;2023-07-13T00:28:34;22.40;1.00
20650;DHT22;10484;48.736;9.332;2023-07-13T00:31:00;22.30;1.00
20650;DHT22;10484;48.736;9.332;2023-07-13T00:33:27;22.30;1.00
20650;DHT22;10484;48.736;9.332;2023-07-13T00:35:54;22.20;1.00
20650;DHT22;10484;48.736;9.332;2023-07-13T00:38:20;22.20;1.00
20650;DHT22;10484;48.736;9.332;2023-07-13T00:40:46;22.20;1.00
20650;DHT22;10484;48.736;9.332;2023-07-13T00:43:15;22.20;1.00
20650;DHT22;10484;48.736;9.332;2023-07-13T00:48:16;22.20;1.00
20650;DHT22;10484;48.736;9.332;2023-07-13T00:50:44;22.10;1.00
20650;DHT22;10484;48.736;9.332;2023-07-13T00:53:10;22.10;1.00
20650;DHT22;10484;48.736;9.332;2023-07-13T00:55:37;22.10;1.00
20650;DHT22;10484;48.736;9.332;2023-07-13T00:58:05;22.00;1.00
20650;DHT22;10484;48.736;9.332;2023-07-13T01:00:33;21.90;1.00
20650;DHT22;10484;48.736;9.332;2023-07-13T01:03:00;21.90;1.00
20650;DHT22;10484;48.736;9.332;2023-07-13T01:05:31;21.90;1.00
20650;DHT22;10484;48.736;9.332;2023-07-13T01:07:57;21.90;1.00
20650;DHT22;10484;48.736;9.332;2023-07-13T01:10:25;21.80;1.00
20650;DHT22;10484;48.736;9.332;2023-07-13T01:12:51;21.80;1.00
20650;DHT22;10484;48.736;9.332;2023-07-13T01:18:00;21.70;1.00
20650;DHT22;10484;48.736;9.332;2023-07-13T01:20:26;21.70;1.00
20650;DHT22;10484;48.736;9.332;2023-07-13T01:22:52;21.60;1.00
20650;DHT22;10484;48.736;9.332;2023-07-13T01:25:18;21.50;1.00
20650;DHT22;10484;48.736;9.332;2023-07-13T01:27:44;21.50;1.00
20650;DHT22;10484;48.736;9.332;2023-07-13T01:30:10;21.50;1.00
20650;DHT22;10484;48.736;9.332;2023-07-13T01:32:35;21.40;1.00
20650;DHT22;10484;48.736;9.332;2023-07-13T01:35:02;21.40;1.00
20650;DHT22;10484;48.736;9.332;2023-07-13T01:37:28;21.30;1.00
20650;DHT22;10484;48.736;9.332;2023-07-13T01:39:58;21.30;1.00
20650;DHT22;10484;48.736;9.332;2023-07-13T01:42:24;21.30;1.00
20650;DHT22;10484;48.736;9.332;2023-07-13T01:44:50;21.30;1.00
20650;DHT22;10484;48.736;9.332;2023-07-13T01:47:15;21.20;1.00
20650;DHT22;10484;48.736;9.332;2023-07-13T01:49:41;21.20;1.00
20650;DHT22;10484;48.736;9.332;2023-07-13T01:52:07;21.20;1.00
20650;DHT22;10484;48.736;9.332;2023-07-13T01:54:33;21.10;1.00
20650;DHT22;10484;48.736;9.332;2023-07-13T01:56:59;21.10;1.00
20650;DHT22;10484;48.736;9.332;2023-07-13T01:59:25;21.10;1.00
20650;DHT22;10484;48.736;9.332;2023-07-13T02:01:50;21.00;1.00
20650;DHT22;10484;48.736;9.332;2023-07-13T02:04:16;21.00;1.00
20650;DHT22;10484;48.736;9.332;2023-07-13T02:06:42;21.00;1.00
20650;DHT22;10484;48.736;9.332;2023-07-13T02:09:07;20.90;1.00
20650;DHT22;10484;48.736;9.332;2023-07-13T02:11:33;20.90;1.00
20650;DHT22;10484;48.736;9.332;2023-07-13T02:14:00;20.80;1.00
20650;DHT22;10484;48.736;9.332;2023-07-13T02:16:26;20.80;1.00
20650;DHT22;10484;48.736;9.332;2023-07-13T02:18:51;20.80;1.00
20650;DHT22;10484;48.736;9.332;2023-07-13T02:21:17;20.80;1.00
20650;DHT22;10484;48.736;9.332;2023-07-13T02:23:43;20.70;1.00
20650;DHT22;10484;48.736;9.332;2023-07-13T02:26:09;20.70;1.00
20650;DHT22;10484;48.736;9.332;2023-07-13T02:28:35;20.70;1.00
20650;DHT22;10484;48.736;9.332;2023-07-13T02:31:12;20.70;1.00
20650;DHT22;10484;48.736;9.332;2023-07-13T02:33:38;20.60;1.00
20650;DHT22;10484;48.736;9.332;2023-07-13T02:36:04;20.50;1.00
20650;DHT22;10484;48.736;9.332;2023-07-13T02:38:32;20.50;1.00
20650;DHT22;10484;48.736;9.332;2023-07-13T02:40:59;20.50;1.00
20650;DHT22;10484;48.736;9.332;2023-07-13T02:43:25;20.50;1.00
20650;DHT22;10484;48.736;9.332;2023-07-13T02:45:51;20.40;1.00
20650;DHT22;10484;48.736;9.332;2023-07-13T02:48:16;20.40;1.00
20650;DHT22;10484;48.736;9.332;2023-07-13T02:50:42;20.40;1.00
20650;DHT22;10484;48.736;9.332;2023-07-13T02:53:09;20.40;1.00
20650;DHT22;10484;48.736;9.332;2023-07-13T02:55:34;20.30;1.00
20650;DHT22;10484;48.736;9.332;2023-07-13T02:58:00;20.30;1.00
20650;DHT22;10484;48.736;9.332;2023-07-13T03:00:27;20.30;1.00
20650;DHT22;10484;48.736;9.332;2023-07-13T03:02:53;20.30;1.00
20650;DHT22;10484;48.736;9.332;2023-07-13T03:05:18;20.20;1.00
20650;DHT22;10484;48.736;9.332;2023-07-13T03:07:44;20.20;1.00
20650;DHT22;10484;48.736;9.332;2023-07-13T03:10:10;20.10;1.00
20650;DHT22;10484;48.736;9.332;2023-07-13T03:12:35;20.10;1.00
20650;DHT22;10484;48.736;9.332;2023-07-13T03:15:01;20.10;1.00
20650;DHT22;10484;48.736;9.332;2023-07-13T03:17:27;20.00;1.00
20650;DHT22;10484;48.736;9.332;2023-07-13T03:19:52;20.00;1.00
20650;DHT22;10484;48.736;9.332;2023-07-13T03:22:18;19.90;1.00
20650;DHT22;10484;48.736;9.332;2023-07-13T03:24:44;19.90;1.00
20650;DHT22;10484;48.736;9.332;2023-07-13T03:27:14;19.90;1.00
20650;DHT22;10484;48.736;9.332;2023-07-13T03:29:40;19.80;1.00
20650;DHT22;10484;48.736;9.332;2023-07-13T03:32:06;19.80;1.00
20650;DHT22;10484;48.736;9.332;2023-07-13T03:34:32;19.80;1.00
20650;DHT22;10484;48.736;9.332;2023-07-13T03:36:58;19.80;1.00
20650;DHT22;10484;48.736;9.332;2023-07-13T03:39:23;19.70;1.00
20650;DHT22;10484;48.736;9.332;2023-07-13T03:41:49;19.70;1.00
20650;DHT22;10484;48.736;9.332;2023-07-13T03:44:16;19.70;1.00
20650;DHT22;10484;48.736;9.332;2023-07-13T03:46:46;19.70;1.00
20650;DHT22;10484;48.736;9.332;2023-07-13T03:49:12;19.70;1.00
20650;DHT22;10484;48.736;9.332;2023-07-13T03:51:37;19.60;1.00
20650;DHT22;10484;48.736;9.332;2023-07-13T03:54:03;19.60;1.00
20650;DHT22;10484;48.736;9.332;2023-07-13T03:56:29;19.60;1.00
20650;DHT22;10484;48.736;9.332;2023-07-13T03:58:56;19.60;1.00
20650;DHT22;10484;48.736;9.332;2023-07-13T04:01:23;19.60;1.00
20650;DHT22;10484;48.736;9.332;2023-07-13T04:03:50;19.60;1.00
20650;DHT22;10484;48.736;9.332;2023-07-13T04:06:26;19.60;1.00
20650;DHT22;10484;48.736;9.332;2023-07-13T04:08:57;19.60;1.00
20650;DHT22;10484;48.736;9.332;2023-07-13T04:11:25;19.60;1.00
20650;DHT22;10484;48.736;9.332;2023-07-13T04:13:51;19.50;1.00
20650;DHT22;10484;48.736;9.332;2023-07-13T04:16:18;19.50;1.00
20650;DHT22;10484;48.736;9.332;2023-07-13T04:18:45;19.50;1.00
20650;DHT22;10484;48.736;9.332;2023-07-13T04:21:11;19.50;1.00
20650;DHT22;10484;48.736;9.332;2023-07-13T04:23:37;19.50;1.00
20650;DHT22;10484;48.736;9.332;2023-07-13T04:26:03;19.50;1.00
20650;DHT22;10484;48.736;9.332;2023-07-13T04:28:29;19.50;1.00
20650;DHT22;10484;48.736;9.332;2023-07-13T04:30:54;19.50;1.00
20650;DHT22;10484;48.736;9.332;2023-07-13T04:33:20;19.50;1.00
20650;DHT22;10484;48.736;9.332;2023-07-13T04:35:50;19.50;1.00
20650;DHT22;10484;48.736;9.332;2023-07-13T04:38:22;19.50;1.00
20650;DHT22;10484;48.736;9.332;2023-07-13T04:40:49;19.50;1.00
20650;DHT22;10484;48.736;9.332;2023-07-13T04:43:16;19.50;1.00
20650;DHT22;10484;48.736;9.332;2023-07-13T04:45:41;19.50;1.00
20650;DHT22;10484;48.736;9.332;2023-07-13T04:48:07;19.50;1.00
20650;DHT22;10484;48.736;9.332;2023-07-13T04:50:32;19.50;1.00
20650;DHT22;10484;48.736;9.332;2023-07-13T04:53:00;19.40;1.00
20650;DHT22;10484;48.736;9.332;2023-07-13T04:55:26;19.40;1.00
20650;DHT22;10484;48.736;9.332;2023-07-13T04:57:56;19.40;1.00
20650;DHT22;10484;48.736;9.332;2023-07-13T05:00:25;19.40;1.00
20650;DHT22;10484;48.736;9.332;2023-07-13T05:02:51;19.40;1.00
20650;DHT22;10484;48.736;9.332;2023-07-13T05:05:16;19.40;1.00
20650;DHT22;10484;48.736;9.332;2023-07-13T05:07:42;19.40;1.00
20650;DHT22;10484;48.736;9.332;2023-07-13T05:10:08;19.40;1.00
20650;DHT22;10484;48.736;9.332;2023-07-13T05:12:34;19.40;1.00
20650;DHT22;10484;48.736;9.332;2023-07-13T05:14:59;19.40;1.00
20650;DHT22;10484;48.736;9.332;2023-07-13T05:17:25;19.40;1.00
20650;DHT22;10484;48.736;9.332;2023-07-13T05:19:51;19.40;1.00
20650;DHT22;10484;48.736;9.332;2023-07-13T05:22:16;19.40;1.00
20650;DHT22;10484;48.736;9.332;2023-07-13T05:24:42;19.40;1.00
20650;DHT22;10484;48.736;9.332;2023-07-13T05:27:07;19.40;1.00
20650;DHT22;10484;48.736;9.332;2023-07-13T05:29:33;19.40;1.00
20650;DHT22;10484;48.736;9.332;2023-07-13T05:31:58;19.40;1.00
20650;DHT22;10484;48.736;9.332;2023-07-13T05:34:24;19.40;1.00
20650;DHT22;10484;48.736;9.332;2023-07-13T05:36:50;19.40;1.00
20650;DHT22;10484;48.736;9.332;2023-07-13T05:39:16;19.40;1.00
20650;DHT22;10484;48.736;9.332;2023-07-13T05:41:42;19.40;1.00
20650;DHT22;10484;48.736;9.332;2023-07-13T05:44:07;19.40;1.00
20650;DHT22;10484;48.736;9.332;2023-07-13T05:46:33;19.50;1.00
20650;DHT22;10484;48.736;9.332;2023-07-13T05:48:59;19.50;1.00
20650;DHT22;10484;48.736;9.332;2023-07-13T05:51:24;19.50;1.00
20650;DHT22;10484;48.736;9.332;2023-07-13T05:53:50;19.50;1.00
20650;DHT22;10484;48.736;9.332;2023-07-13T05:56:16;19.50;1.00
20650;DHT22;10484;48.736;9.332;2023-07-13T05:58:41;19.50;1.00
20650;DHT22;10484;48.736;9.332;2023-07-13T06:01:10;19.50;1.00
20650;DHT22;10484;48.736;9.332;2023-07-13T06:03:37;19.50;1.00
20650;DHT22;10484;48.736;9.332;2023-07-13T06:06:06;19.50;1.00
20650;DHT22;10484;48.736;9.332;2023-07-13T06:08:33;19.60;1.00
20650;DHT22;10484;48.736;9.332;2023-07-13T06:11:06;19.60;1.00
20650;DHT22;10484;48.736;9.332;2023-07-13T06:13:33;19.50;1.00
20650;DHT22;10484;48.736;9.332;2023-07-13T06:16:00;19.50;1.00
20650;DHT22;10484;48.736;9.332;2023-07-13T06:18:25;19.50;1.00
20650;DHT22;10484;48.736;9.332;2023-07-13T06:20:51;19.60;1.00
20650;DHT22;10484;48.736;9.332;2023-07-13T06:23:16;19.50;1.00
20650;DHT22;10484;48.736;9.332;2023-07-13T06:25:43;19.60;1.00
20650;DHT22;10484;48.736;9.332;2023-07-13T06:28:08;19.60;1.00
20650;DHT22;10484;48.736;9.332;2023-07-13T06:30:34;19.60;1.00
20650;DHT22;10484;48.736;9.332;2023-07-13T06:32:59;19.60;1.00
20650;DHT22;10484;48.736;9.332;2023-07-13T06:35:25;19.70;1.00
20650;DHT22;10484;48.736;9.332;2023-07-13T06:37:51;19.70;1.00
20650;DHT22;10484;48.736;9.332;2023-07-13T06:40:16;19.70;1.00
20650;DHT22;10484;48.736;9.332;2023-07-13T06:42:42;19.70;1.00
20650;DHT22;10484;48.736;9.332;2023-07-13T06:45:08;19.70;1.00
20650;DHT22;10484;48.736;9.332;2023-07-13T06:47:34;19.70;1.00
20650;DHT22;10484;48.736;9.332;2023-07-13T06:50:00;19.80;1.00
20650;DHT22;10484;48.736;9.332;2023-07-13T06:52:26;19.80;1.00
20650;DHT22;10484;48.736;9.332;2023-07-13T06:54:52;19.80;1.00
20650;DHT22;10484;48.736;9.332;2023-07-13T06:57:17;19.90;1.00
20650;DHT22;10484;48.736;9.332;2023-07-13T06:59:43;19.90;1.00
20650;DHT22;10484;48.736;9.332;2023-07-13T07:02:10;19.90;1.00
20650;DHT22;10484;48.736;9.332;2023-07-13T07:04:35;19.90;1.00
20650;DHT22;10484;48.736;9.332;2023-07-13T07:07:01;20.00;1.00
20650;DHT22;10484;48.736;9.332;2023-07-13T07:09:27;20.00;1.00
20650;DHT22;10484;48.736;9.332;2023-07-13T07:11:54;20.00;1.00
20650;DHT22;10484;48.736;9.332;2023-07-13T07:14:20;20.10;1.00
20650;DHT22;10484;48.736;9.332;2023-07-13T07:16:46;20.10;1.00
20650;DHT22;10484;48.736;9.332;2023-07-13T07:19:11;20.10;1.00
20650;DHT22;10484;48.736;9.332;2023-07-13T07:21:37;20.10;1.00
20650;DHT22;10484;48.736;9.332;2023-07-13T07:24:02;20.10;1.00
20650;DHT22;10484;48.736;9.332;2023-07-13T07:26:30;20.20;1.00
20650;DHT22;10484;48.736;9.332;2023-07-13T07:28:55;20.20;1.00
20650;DHT22;10484;48.736;9.332;2023-07-13T07:31:21;20.20;1.00
20650;DHT22;10484;48.736;9.332;2023-07-13T07:33:47;20.30;1.00
20650;DHT22;10484;48.736;9.332;2023-07-13T07:36:15;20.30;1.00
20650;DHT22;10484;48.736;9.332;2023-07-13T07:38:41;20.30;1.00
20650;DHT22;10484;48.736;9.332;2023-07-13T07:41:07;20.40;1.00
20650;DHT22;10484;48.736;9.332;2023-07-13T07:43:33;20.40;1.00
20650;DHT22;10484;48.736;9.332;2023-07-13T07:45:59;20.50;1.00
20650;DHT22;10484;48.736;9.332;2023-07-13T07:48:25;20.60;1.00
20650;DHT22;10484;48.736;9.332;2023-07-13T07:50:50;20.60;1.00
20650;DHT22;10484;48.736;9.332;2023-07-13T07:53:16;20.70;1.00
20650;DHT22;10484;48.736;9.332;2023-07-13T07:55:41;20.70;1.00
20650;DHT22;10484;48.736;9.332;2023-07-13T07:58:07;20.80;1.00
20650;DHT22;10484;48.736;9.332;2023-07-13T08:00:33;20.90;1.00
20650;DHT22;10484;48.736;9.332;2023-07-13T08:02:59;21.10;1.00
20650;DHT22;10484;48.736;9.332;2023-07-13T08:05:25;21.10;1.00
20650;DHT22;10484;48.736;9.332;2023-07-13T08:07:51;21.20;1.00
20650;DHT22;10484;48.736;9.332;2023-07-13T08:10:17;21.30;1.00
20650;DHT22;10484;48.736;9.332;2023-07-13T08:12:42;21.40;1.00
20650;DHT22;10484;48.736;9.332;2023-07-13T08:15:11;21.40;1.00
20650;DHT22;10484;48.736;9.332;2023-07-13T08:17:37;21.50;1.00
20650;DHT22;10484;48.736;9.332;2023-07-13T08:20:03;21.70;1.00
20650;DHT22;10484;48.736;9.332;2023-07-13T08:22:29;21.80;1.00
20650;DHT22;10484;48.736;9.332;2023-07-13T08:24:55;21.80;1.00
20650;DHT22;10484;48.736;9.332;2023-07-13T08:27:22;21.90;1.00
20650;DHT22;10484;48.736;9.332;2023-07-13T08:29:49;22.00;1.00
20650;DHT22;10484;48.736;9.332;2023-07-13T08:32:15;22.10;1.00
20650;DHT22;10484;48.736;9.332;2023-07-13T08:34:41;22.20;1.00
20650;DHT22;10484;48.736;9.332;2023-07-13T08:37:07;22.30;1.00
20650;DHT22;10484;48.736;9.332;2023-07-13T08:39:33;22.40;1.00
20650;DHT22;10484;48.736;9.332;2023-07-13T08:42:04;22.50;1.00
20650;DHT22;10484;48.736;9.332;2023-07-13T08:44:44;22.60;1.00
20650;DHT22;10484;48.736;9.332;2023-07-13T08:47:14;22.70;1.00
20650;DHT22;10484;48.736;9.332;2023-07-13T08:49:41;22.80;1.00
20650;DHT22;10484;48.736;9.332;2023-07-13T08:55:19;23.00;1.00
20650;DHT22;10484;48.736;9.332;2023-07-13T09:03:18;23.30;1.00
20650;DHT22;10484;48.736;9.332;2023-07-13T09:05:51;23.40;1.00
20650;DHT22;10484;48.736;9.332;2023-07-13T09:08:58;23.40;1.00
20650;DHT22;10484;48.736;9.332;2023-07-13T09:17:02;23.60;1.00
20650;DHT22;10484;48.736;9.332;2023-07-13T09:19:30;23.60;1.00
20650;DHT22;10484;48.736;9.332;2023-07-13T09:21:58;23.60;1.00
20650;DHT22;10484;48.736;9.332;2023-07-13T09:24:49;23.60;1.00
20650;DHT22;10484;48.736;9.332;2023-07-13T09:27:23;23.70;1.00
20650;DHT22;10484;48.736;9.332;2023-07-13T09:32:40;23.80;1.00
20650;DHT22;10484;48.736;9.332;2023-07-13T09:35:12;23.90;1.00
20650;DHT22;10484;48.736;9.332;2023-07-13T09:37:43;24.00;1.00
20650;DHT22;10484;48.736;9.332;2023-07-13T09:40:36;24.10;1.00
20650;DHT22;10484;48.736;9.332;2023-07-13T09:43:05;24.20;1.00
20650;DHT22;10484;48.736;9.332;2023-07-13T09:45:34;24.20;1.00
20650;DHT22;10484;48.736;9.332;2023-07-13T09:48:05;24.30;1.00
20650;DHT22;10484;48.736;9.332;2023-07-13T09:50:30;24.40;1.00
20650;DHT22;10484;48.736;9.332;2023-07-13T09:52:56;24.50;1.00
20650;DHT22;10484;48.736;9.332;2023-07-13T09:55:28;24.60;1.00
20650;DHT22;10484;48.736;9.332;2023-07-13T09:57:54;24.60;1.00
20650;DHT22;10484;48.736;9.332;2023-07-13T10:00:25;24.60;1.00
20650;DHT22;10484;48.736;9.332;2023-07-13T10:03:20;24.70;1.00
20650;DHT22;10484;48.736;9.332;2023-07-13T10:05:48;24.70;1.00
20650;DHT22;10484;48.736;9.332;2023-07-13T10:08:35;24.80;1.00
20650;DHT22;10484;48.736;9.332;2023-07-13T10:13:58;24.80;1.00
20650;DHT22;10484;48.736;9.332;2023-07-13T10:16:27;24.80;1.00
20650;DHT22;10484;48.736;9.332;2023-07-13T10:19:00;24.80;1.00
20650;DHT22;10484;48.736;9.332;2023-07-13T10:21:32;24.80;1.00
20650;DHT22;10484;48.736;9.332;2023-07-13T10:24:17;24.90;1.00
20650;DHT22;10484;48.736;9.332;2023-07-13T10:27:12;24.90;1.00
20650;DHT22;10484;48.736;9.332;2023-07-13T10:30:15;25.00;1.00
20650;DHT22;10484;48.736;9.332;2023-07-13T10:32:43;25.00;1.00
20650;DHT22;10484;48.736;9.332;2023-07-13T10:35:12;25.10;1.00
20650;DHT22;10484;48.736;9.332;2023-07-13T10:40:28;25.30;1.00
20650;DHT22;10484;48.736;9.332;2023-07-13T10:42:59;25.40;1.00
20650;DHT22;10484;48.736;9.332;2023-07-13T10:45:26;25.40;1.00
20650;DHT22;10484;48.736;9.332;2023-07-13T10:47:54;25.40;1.00
20650;DHT22;10484;48.736;9.332;2023-07-13T10:50:30;25.50;1.00
20650;DHT22;10484;48.736;9.332;2023-07-13T10:53:20;25.60;1.00
20650;DHT22;10484;48.736;9.332;2023-07-13T10:58:21;25.70;1.00
20650;DHT22;10484;48.736;9.332;2023-07-13T11:01:03;25.70;1.00
20650;DHT22;10484;48.736;9.332;2023-07-13T11:03:30;25.80;1.00
20650;DHT22;10484;48.736;9.332;2023-07-13T11:11:38;25.90;1.00
20650;DHT22;10484;48.736;9.332;2023-07-13T11:14:25;26.00;1.00
20650;DHT22;10484;48.736;9.332;2023-07-13T11:16:50;26.00;1.00
20650;DHT22;10484;48.736;9.332;2023-07-13T11:24:29;26.20;1.00
20650;DHT22;10484;48.736;9.332;2023-07-13T11:26:55;26.30;1.00
20650;DHT22;10484;48.736;9.332;2023-07-13T11:31:58;26.40;1.00
20650;DHT22;10484;48.736;9.332;2023-07-13T11:34:30;26.50;1.00
20650;DHT22;10484;48.736;9.332;2023-07-13T11:36:59;26.60;1.00
20650;DHT22;10484;48.736;9.332;2023-07-13T11:39:32;26.70;1.00
20650;DHT22;10484;48.736;9.332;2023-07-13T11:42:01;26.70;1.00
20650;DHT22;10484;48.736;9.332;2023-07-13T11:44:29;26.80;1.00
20650;DHT22;10484;48.736;9.332;2023-07-13T11:46:57;26.90;1.00
20650;DHT22;10484;48.736;9.332;2023-07-13T11:49:30;27.10;1.00
20650;DHT22;10484;48.736;9.332;2023-07-13T11:51:57;27.10;1.00
20650;DHT22;10484;48.736;9.332;2023-07-13T11:54:27;27.20;1.00
20650;DHT22;10484;48.736;9.332;2023-07-13T11:56:57;27.30;1.00
20650;DHT22;10484;48.736;9.332;2023-07-13T11:59:25;27.30;1.00
20650;DHT22;10484;48.736;9.332;2023-07-13T12:01:53;27.30;1.00
20650;DHT22;10484;48.736;9.332;2023-07-13T12:04:25;27.40;1.00
20650;DHT22;10484;48.736;9.332;2023-07-13T12:07:06;27.50;1.00
20650;DHT22;10484;48.736;9.332;2023-07-13T12:09:34;27.60;1.00
20650;DHT22;10484;48.736;9.332;2023-07-13T12:12:02;27.60;1.00
20650;DHT22;10484;48.736;9.332;2023-07-13T12:14:28;27.60;1.00
20650;DHT22;10484;48.736;9.332;2023-07-13T12:16:55;27.70;1.00
20650;DHT22;10484;48.736;9.332;2023-07-13T12:19:26;27.80;1.00
20650;DHT22;10484;48.736;9.332;2023-07-13T12:21:56;27.80;1.00
20650;DHT22;10484;48.736;9.332;2023-07-13T12:24:23;27.90;1.00
20650;DHT22;10484;48.736;9.332;2023-07-13T12:27:03;28.00;1.00
20650;DHT22;10484;48.736;9.332;2023-07-13T12:29:30;28.00;1.00
20650;DHT22;10484;48.736;9.332;2023-07-13T12:31:56;28.10;1.00
20650;DHT22;10484;48.736;9.332;2023-07-13T12:34:24;28.20;1.00
20650;DHT22;10484;48.736;9.332;2023-07-13T12:36:52;28.30;1.00
20650;DHT22;10484;48.736;9.332;2023-07-13T12:41:46;28.30;1.00
20650;DHT22;10484;48.736;9.332;2023-07-13T12:44:15;28.40;1.00
20650;DHT22;10484;48.736;9.332;2023-07-13T12:46:55;28.40;1.00
20650;DHT22;10484;48.736;9.332;2023-07-13T12:49:27;28.30;1.00
20650;DHT22;10484;48.736;9.332;2023-07-13T12:51:59;28.40;1.00
20650;DHT22;10484;48.736;9.332;2023-07-13T12:54:26;28.40;1.00
20650;DHT22;10484;48.736;9.332;2023-07-13T12:56:53;28.50;1.00
20650;DHT22;10484;48.736;9.332;2023-07-13T12:59:22;28.60;1.00
20650;DHT22;10484;48.736;9.332;2023-07-13T13:01:49;28.70;1.00
20650;DHT22;10484;48.736;9.332;2023-07-13T13:04:15;28.70;1.00
20650;DHT22;10484;48.736;9.332;2023-07-13T13:06:41;28.80;1.00
20650;DHT22;10484;48.736;9.332;2023-07-13T13:09:13;28.90;1.00
20650;DHT22;10484;48.736;9.332;2023-07-13T13:11:40;28.90;1.00
20650;DHT22;10484;48.736;9.332;2023-07-13T13:14:06;28.90;1.00
20650;DHT22;10484;48.736;9.332;2023-07-13T13:16:35;29.00;1.00
20650;DHT22;10484;48.736;9.332;2023-07-13T13:19:15;29.00;1.00
20650;DHT22;10484;48.736;9.332;2023-07-13T13:21:43;29.10;1.00
20650;DHT22;10484;48.736;9.332;2023-07-13T13:24:11;29.00;1.00
20650;DHT22;10484;48.736;9.332;2023-07-13T13:26:38;29.00;1.00
20650;DHT22;10484;48.736;9.332;2023-07-13T13:29:15;28.90;1.00
20650;DHT22;10484;48.736;9.332;2023-07-13T13:31:41;28.90;1.00
20650;DHT22;10484;48.736;9.332;2023-07-13T13:34:10;28.90;1.00
20650;DHT22;10484;48.736;9.332;2023-07-13T13:36:36;29.00;1.00
20650;DHT22;10484;48.736;9.332;2023-07-13T13:39:01;29.10;1.00
20650;DHT22;10484;48.736;9.332;2023-07-13T13:41:27;29.20;1.00
20650;DHT22;10484;48.736;9.332;2023-07-13T13:43:53;29.10;1.00
20650;DHT22;10484;48.736;9.332;2023-07-13T13:46:21;29.10;1.00
20650;DHT22;10484;48.736;9.332;2023-07-13T13:48:50;29.10;1.00
20650;DHT22;10484;48.736;9.332;2023-07-13T13:51:19;29.00;1.00
20650;DHT22;10484;48.736;9.332;2023-07-13T13:53:46;29.00;1.00
20650;DHT22;10484;48.736;9.332;2023-07-13T13:56:12;29.10;1.00
20650;DHT22;10484;48.736;9.332;2023-07-13T13:58:39;29.30;1.00
20650;DHT22;10484;48.736;9.332;2023-07-13T14:01:04;29.20;1.00
20650;DHT22;10484;48.736;9.332;2023-07-13T14:03:33;29.30;1.00
20650;DHT22;10484;48.736;9.332;2023-07-13T14:05:59;29.20;1.00
20650;DHT22;10484;48.736;9.332;2023-07-13T14:08:26;29.20;1.00
20650;DHT22;10484;48.736;9.332;2023-07-13T14:10:54;29.20;1.00
20650;DHT22;10484;48.736;9.332;2023-07-13T14:13:31;29.20;1.00
20650;DHT22;10484;48.736;9.332;2023-07-13T14:15:58;29.10;1.00
20650;DHT22;10484;48.736;9.332;2023-07-13T14:18:24;29.20;1.00
20650;DHT22;10484;48.736;9.332;2023-07-13T14:20:50;29.30;1.00
20650;DHT22;10484;48.736;9.332;2023-07-13T14:23:18;29.30;1.00
20650;DHT22;10484;48.736;9.332;2023-07-13T14:25:44;29.30;1.00
20650;DHT22;10484;48.736;9.332;2023-07-13T14:28:27;29.30;1.00
20650;DHT22;10484;48.736;9.332;2023-07-13T14:30:54;29.30;1.00
20650;DHT22;10484;48.736;9.332;2023-07-13T14:33:22;29.30;1.00
20650;DHT22;10484;48.736;9.332;2023-07-13T14:35:49;29.30;1.00
20650;DHT22;10484;48.736;9.332;2023-07-13T14:38:18;29.40;1.00
20650;DHT22;10484;48.736;9.332;2023-07-13T14:40:44;29.50;1.00
20650;DHT22;10484;48.736;9.332;2023-07-13T14:43:11;29.50;1.00
20650;DHT22;10484;48.736;9.332;2023-07-13T14:45:49;29.60;1.00
20650;DHT22;10484;48.736;9.332;2023-07-13T14:48:20;29.60;1.00
20650;DHT22;10484;48.736;9.332;2023-07-13T14:50:49;29.50;1.00
20650;DHT22;10484;48.736;9.332;2023-07-13T14:53:15;29.50;1.00
20650;DHT22;10484;48.736;9.332;2023-07-13T14:55:41;29.40;1.00
20650;DHT22;10484;48.736;9.332;2023-07-13T14:58:08;29.40;1.00
20650;DHT22;10484;48.736;9.332;2023-07-13T15:00:33;29.50;1.00
20650;DHT22;10484;48.736;9.332;2023-07-13T15:03:00;29.50;1.00
20650;DHT22;10484;48.736;9.332;2023-07-13T15:05:29;29.50;1.00
20650;DHT22;10484;48.736;9.332;2023-07-13T15:07:58;29.50;1.00
20650;DHT22;10484;48.736;9.332;2023-07-13T15:10:27;29.50;1.00
20650;DHT22;10484;48.736;9.332;2023-07-13T15:12:59;29.30;1.00
20650;DHT22;10484;48.736;9.332;2023-07-13T15:15:30;29.30;1.00
20650;DHT22;10484;48.736;9.332;2023-07-13T15:17:57;29.20;1.00
20650;DHT22;10484;48.736;9.332;2023-07-13T15:20:33;29.10;1.00
20650;DHT22;10484;48.736;9.332;2023-07-13T15:23:01;29.00;1.00
20650;DHT22;10484;48.736;9.332;2023-07-13T15:25:29;28.90;1.00
20650;DHT22;10484;48.736;9.332;2023-07-13T15:27:57;29.00;1.00
20650;DHT22;10484;48.736;9.332;2023-07-13T15:30:25;28.90;1.00
20650;DHT22;10484;48.736;9.332;2023-07-13T15:32:52;28.80;1.00
20650;DHT22;10484;48.736;9.332;2023-07-13T15:35:25;28.80;1.00
20650;DHT22;10484;48.736;9.332;2023-07-13T15:37:51;28.80;1.00
20650;DHT22;10484;48.736;9.332;2023-07-13T15:40:17;28.80;1.00
20650;DHT22;10484;48.736;9.332;2023-07-13T15:42:45;28.90;1.00
20650;DHT22;10484;48.736;9.332;2023-07-13T15:45:19;29.00;1.00
20650;DHT22;10484;48.736;9.332;2023-07-13T15:47:46;29.00;1.00
20650;DHT22;10484;48.736;9.332;2023-07-13T15:50:13;29.00;1.00
20650;DHT22;10484;48.736;9.332;2023-07-13T15:52:39;29.00;1.00
20650;DHT22;10484;48.736;9.332;2023-07-13T15:55:08;29.00;1.00
20650;DHT22;10484;48.736;9.332;2023-07-13T15:57:34;28.90;1.00
20650;DHT22;10484;48.736;9.332;2023-07-13T16:00:00;28.80;1.00
20650;DHT22;10484;48.736;9.332;2023-07-13T16:02:26;28.80;1.00
20650;DHT22;10484;48.736;9.332;2023-07-13T16:04:51;28.80;1.00
20650;DHT22;10484;48.736;9.332;2023-07-13T16:07:17;28.80;1.00
20650;DHT22;10484;48.736;9.332;2023-07-13T16:09:44;28.80;1.00
20650;DHT22;10484;48.736;9.332;2023-07-13T16:12:14;28.80;1.00
20650;DHT22;10484;48.736;9.332;2023-07-13T16:14:40;28.90;1.00
20650;DHT22;10484;48.736;9.332;2023-07-13T16:17:11;28.90;1.00
20650;DHT22;10484;48.736;9.332;2023-07-13T16:19:37;28.90;1.00
20650;DHT22;10484;48.736;9.332;2023-07-13T16:22:03;28.90;1.00
20650;DHT22;10484;48.736;9.332;2023-07-13T16:24:31;28.90;1.00
20650;DHT22;10484;48.736;9.332;2023-07-13T16:26:58;28.90;1.00
20650;DHT22;10484;48.736;9.332;2023-07-13T16:29:29;28.80;1.00
20650;DHT22;10484;48.736;9.332;2023-07-13T16:32:20;28.70;1.00
20650;DHT22;10484;48.736;9.332;2023-07-13T16:34:45;28.70;1.00
20650;DHT22;10484;48.736;9.332;2023-07-13T16:37:28;28.60;1.00